Time;durP1;ratioP1;P1;durP2;ratioP2;P2;SDS_P1;SDS_P2;PMS_P1;PMS_P2;Temp;Humidity;BMP_temperature;BMP_pressure;BME280_temperature;BME280_humidity;BME280_pressure;Samples;Min_cycle;Max_cycle;Signal;HPM_P1;HPM_P2
2023/12/28 00:02:04;;;;;;;64.78;39.53;;;16.70;99.90;;;;;;4946345;29;20049;-76
2023/12/28 00:04:30;;;;;;;56.22;39.00;;;17.30;99.90;;;;;;4946590;29;20501;-76
2023/12/28 00:06:56;;;;;;;65.07;38.00;;;15.40;99.90;;;;;;4946920;29;20564;-76
2023/12/28 00:09:22;;;;;;;63.30;39.08;;;15.50;99.90;;;;;;4930723;29;20043;-76
2023/12/28 00:11:47;;;;;;;53.40;36.30;;;17.20;99.90;;;;;;4946383;29;20134;-76
2023/12/28 00:14:13;;;;;;;57.35;37.15;;;17.00;99.90;;;;;;4946024;29;20078;-76
2023/12/28 00:16:38;;;;;;;58.88;36.75;;;15.80;99.90;;;;;;4945903;29;20126;-76
2023/12/28 00:19:04;;;;;;;62.67;38.28;;;15.40;99.90;;;;;;4945870;28;20517;-76
2023/12/28 00:21:30;;;;;;;58.40;37.45;;;15.60;99.90;;;;;;4946328;29;20122;-77
2023/12/28 00:23:56;;;;;;;61.85;40.83;;;15.30;99.90;;;;;;4945584;29;20039;-76
2023/12/28 00:26:21;;;;;;;64.40;39.17;;;15.90;99.90;;;;;;4946391;28;20039;-76
2023/12/28 00:28:48;;;;;;;64.32;40.17;;;15.80;99.90;;;;;;4946702;29;20405;-76
2023/12/28 00:31:13;;;;;;;60.10;37.67;;;15.00;99.90;;;;;;4930550;29;20050;-76
2023/12/28 00:33:39;;;;;;;64.30;40.10;;;16.60;99.90;;;;;;4946219;29;20051;-76
2023/12/28 00:36:05;;;;;;;59.03;38.08;;;14.80;99.90;;;;;;4946309;29;20051;-76
2023/12/28 00:38:30;;;;;;;63.50;39.33;;;15.10;99.90;;;;;;4946546;29;20134;-76
2023/12/28 00:40:57;;;;;;;55.53;37.35;;;15.40;99.90;;;;;;4930831;29;20532;-76
2023/12/28 00:43:22;;;;;;;62.08;36.90;;;16.70;99.90;;;;;;4947598;28;20047;-76
2023/12/28 00:45:48;;;;;;;59.17;36.95;;;15.90;99.90;;;;;;4949792;28;20047;-76
2023/12/28 00:48:14;;;;;;;55.20;37.55;;;15.20;99.90;;;;;;4949515;29;20524;-76
2023/12/28 00:50:39;;;;;;;63.03;40.00;;;16.80;99.90;;;;;;4949626;29;20071;-77
2023/12/28 00:53:05;;;;;;;61.97;41.08;;;16.70;99.90;;;;;;4949709;29;20560;-76
2023/12/28 00:55:30;;;;;;;69.45;39.78;;;16.60;99.90;;;;;;4949295;29;20102;-76
2023/12/28 00:57:56;;;;;;;53.33;37.08;;;16.30;99.90;;;;;;4949665;29;20501;-76
2023/12/28 01:00:22;;;;;;;55.45;35.15;;;14.90;99.90;;;;;;4949778;29;20046;-76
2023/12/28 01:02:47;;;;;;;69.57;37.65;;;14.90;99.90;;;;;;4949847;29;20043;-76
2023/12/28 01:05:14;;;;;;;50.97;36.17;;;16.50;99.90;;;;;;4945247;29;20048;-76
2023/12/28 01:07:39;;;;;;;58.85;36.92;;;16.40;99.90;;;;;;4929081;29;20432;-76
2023/12/28 01:10:06;;;;;;;60.33;36.40;;;15.60;99.90;;;;;;4949420;29;20051;-76
2023/12/28 01:12:31;;;;;;;61.42;35.72;;;15.00;99.90;;;;;;4949479;29;20804;-76
2023/12/28 01:14:57;;;;;;;53.88;34.30;;;16.10;99.90;;;;;;4933408;29;20055;-76
2023/12/28 01:17:22;;;;;;;55.08;33.55;;;15.40;99.90;;;;;;4949312;29;20047;-76
2023/12/28 01:19:48;;;;;;;61.38;34.70;;;14.90;99.90;;;;;;4933476;29;20058;-75
2023/12/28 01:22:13;;;;;;;54.95;32.03;;;15.60;99.90;;;;;;4933689;29;20051;-76
2023/12/28 01:24:39;;;;;;;56.47;35.22;;;15.10;99.90;;;;;;4948530;29;20514;-77
2023/12/28 01:27:05;;;;;;;55.70;36.75;;;16.80;99.90;;;;;;4949337;29;20497;-76
2023/12/28 01:29:30;;;;;;;57.33;36.42;;;16.90;99.90;;;;;;4949218;29;20055;-75
2023/12/28 01:31:56;;;;;;;55.80;34.72;;;16.80;99.90;;;;;;4949431;29;20047;-75
2023/12/28 01:34:22;;;;;;;61.53;36.50;;;15.80;99.90;;;;;;4949081;29;20271;-76
2023/12/28 01:36:47;;;;;;;54.88;32.95;;;15.60;99.90;;;;;;4949123;29;20051;-75
2023/12/28 01:39:15;;;;;;;65.32;35.80;;;15.70;99.90;;;;;;4948614;29;20740;-76
2023/12/28 01:41:40;;;;;;;65.55;36.08;;;15.90;99.90;;;;;;4948753;29;20429;-76
2023/12/28 01:44:06;;;;;;;61.30;34.10;;;15.80;99.90;;;;;;4933143;29;20035;-75
2023/12/28 01:46:33;;;;;;;65.80;35.47;;;17.50;99.90;;;;;;4949146;29;20043;-75
2023/12/28 01:48:59;;;;;;;56.08;33.40;;;17.50;99.90;;;;;;4949113;29;20129;-76
2023/12/28 01:51:25;;;;;;;61.35;35.15;;;17.10;99.90;;;;;;4932974;29;20086;-77
2023/12/28 01:53:52;;;;;;;65.00;34.78;;;15.90;99.90;;;;;;4948453;28;20429;-76
2023/12/28 01:56:18;;;;;;;63.00;36.70;;;17.70;99.90;;;;;;4948490;29;20346;-76
2023/12/28 01:58:46;;;;;;;57.35;34.95;;;17.30;99.90;;;;;;4948699;29;20074;-76
2023/12/28 02:01:11;;;;;;;64.80;36.17;;;15.80;99.90;;;;;;4948740;29;20054;-77
2023/12/28 02:03:38;;;;;;;65.53;36.08;;;17.40;99.90;;;;;;4948863;29;20490;-77
2023/12/28 02:06:06;;;;;;;50.67;34.08;;;17.20;99.90;;;;;;4933219;29;20042;-77
2023/12/28 02:08:31;;;;;;;52.47;35.03;;;16.70;99.90;;;;;;4948050;29;20128;-76
2023/12/28 02:10:57;;;;;;;61.55;37.25;;;15.70;99.90;;;;;;4948405;29;20040;-77
2023/12/28 02:13:23;;;;;;;53.15;33.10;;;15.90;99.90;;;;;;4948540;29;20039;-76
2023/12/28 02:16:03;;;;;;;51.65;33.42;;;15.90;99.90;;;;;;4948429;29;20138;-77
2023/12/28 02:18:38;;;;;;;68.53;37.70;;;17.40;99.90;;;;;;4948041;28;20063;-76
2023/12/28 02:21:06;;;;;;;55.35;37.80;;;19.40;99.90;;;;;;4948151;29;20496;-75
2023/12/28 02:23:33;;;;;;;49.17;34.85;;;17.20;99.90;;;;;;4947315;29;20122;-76
2023/12/28 02:25:59;;;;;;;52.45;36.30;;;16.60;99.90;;;;;;4947413;29;20043;-76
2023/12/28 02:28:24;;;;;;;48.05;33.92;;;16.40;99.90;;;;;;4947600;29;20132;-77
2023/12/28 02:30:50;;;;;;;55.03;36.42;;;15.70;99.90;;;;;;4947832;29;20618;-76
2023/12/28 02:33:19;;;;;;;52.65;36.78;;;15.60;99.90;;;;;;4947782;29;20043;-76
2023/12/28 02:35:55;;;;;;;50.40;35.00;;;17.40;99.90;;;;;;4947630;29;20051;-76
2023/12/28 02:38:22;;;;;;;52.97;36.92;;;15.80;99.90;;;;;;4947773;29;20059;-76
2023/12/28 02:40:48;;;;;;;55.78;36.67;;;16.90;99.90;;;;;;4947917;29;20109;-77
2023/12/28 02:43:14;;;;;;;44.30;33.20;;;17.10;99.90;;;;;;4948123;29;20409;-76
2023/12/28 02:45:40;;;;;;;47.67;34.63;;;17.30;99.90;;;;;;4947541;29;20050;-76
2023/12/28 02:48:06;;;;;;;46.83;34.33;;;16.10;99.90;;;;;;4947718;29;20053;-76
2023/12/28 02:50:33;;;;;;;53.17;34.10;;;15.80;99.90;;;;;;4947733;29;20070;-76
2023/12/28 02:52:59;;;;;;;44.00;33.40;;;17.50;99.90;;;;;;4931787;29;20054;-76
2023/12/28 02:55:25;;;;;;;59.35;36.08;;;17.30;99.90;;;;;;4930929;29;20047;-76
2023/12/28 02:57:52;;;;;;;59.35;36.05;;;16.30;99.90;;;;;;4946950;29;20061;-76
2023/12/28 03:00:17;;;;;;;45.78;35.28;;;16.10;99.90;;;;;;4947651;29;20051;-76
2023/12/28 03:02:43;;;;;;;56.53;34.00;;;17.40;99.90;;;;;;4947226;29;20581;-76
2023/12/28 03:05:09;;;;;;;50.35;34.20;;;17.30;99.90;;;;;;4947308;29;20058;-76
2023/12/28 03:07:35;;;;;;;50.15;33.33;;;17.40;99.90;;;;;;4929951;29;20668;-76
2023/12/28 03:10:02;;;;;;;43.92;32.17;;;15.90;99.90;;;;;;4946937;29;20486;-76
2023/12/28 03:12:29;;;;;;;49.80;36.63;;;16.40;99.90;;;;;;4947742;29;20498;-76
2023/12/28 03:14:54;;;;;;;46.05;32.50;;;15.90;99.90;;;;;;4947870;29;20118;-76
2023/12/28 03:17:20;;;;;;;45.88;32.47;;;15.70;99.90;;;;;;4946784;29;20055;-76
2023/12/28 03:19:46;;;;;;;43.72;33.65;;;17.30;99.90;;;;;;4946952;28;20501;-76
2023/12/28 03:22:11;;;;;;;56.25;33.67;;;15.70;99.90;;;;;;4931529;29;20544;-76
2023/12/28 03:24:38;;;;;;;49.22;32.83;;;16.10;99.90;;;;;;4947056;29;20540;-75
2023/12/28 03:27:04;;;;;;;49.78;36.58;;;17.10;99.90;;;;;;4947028;29;20094;-76
2023/12/28 03:29:30;;;;;;;55.28;35.30;;;16.60;99.90;;;;;;4947087;29;20046;-77
2023/12/28 03:31:55;;;;;;;50.47;31.33;;;15.80;99.90;;;;;;4946752;28;20047;-76
2023/12/28 03:34:22;;;;;;;51.30;35.20;;;17.40;99.90;;;;;;4946683;29;20437;-76
2023/12/28 03:36:48;;;;;;;42.70;30.98;;;16.60;99.90;;;;;;4946581;29;20121;-76
2023/12/28 03:39:14;;;;;;;51.85;32.33;;;16.00;99.90;;;;;;4946258;29;20053;-76
2023/12/28 03:41:39;;;;;;;49.03;31.40;;;15.90;99.90;;;;;;4946877;29;20409;-77
2023/12/28 03:44:05;;;;;;;54.58;36.75;;;18.00;99.90;;;;;;4946887;29;20054;-76
2023/12/28 03:46:31;;;;;;;54.55;33.05;;;17.30;99.90;;;;;;4946763;29;20047;-77
2023/12/28 03:48:56;;;;;;;48.05;35.50;;;16.20;99.90;;;;;;4946597;29;20409;-76
2023/12/28 03:51:22;;;;;;;46.38;31.42;;;15.80;99.90;;;;;;4946753;29;20073;-76
2023/12/28 03:53:48;;;;;;;43.60;31.13;;;16.90;99.90;;;;;;4930644;29;20039;-76
2023/12/28 03:56:27;;;;;;;51.95;30.58;;;16.00;99.90;;;;;;4946902;29;20054;-75
2023/12/28 03:58:54;;;;;;;47.30;31.67;;;15.90;99.90;;;;;;4930385;29;20045;-76
2023/12/28 04:01:21;;;;;;;49.40;35.63;;;16.00;99.90;;;;;;4946456;29;20051;-76
2023/12/28 04:03:48;;;;;;;56.80;36.53;;;16.70;99.90;;;;;;4931455;29;20039;-75
2023/12/28 04:06:14;;;;;;;52.63;31.23;;;17.00;99.90;;;;;;4930567;29;20051;-76
2023/12/28 04:08:41;;;;;;;54.85;33.72;;;16.40;99.90;;;;;;4930206;29;20047;-76
2023/12/28 04:11:10;;;;;;;53.33;30.85;;;17.30;99.90;;;;;;4945725;29;20047;-77
2023/12/28 04:13:36;;;;;;;49.58;33.30;;;17.20;99.90;;;;;;4946980;29;20081;-76
2023/12/28 04:16:02;;;;;;;48.83;32.65;;;15.80;99.90;;;;;;4946342;29;20051;-76
2023/12/28 04:18:28;;;;;;;55.53;33.00;;;16.80;99.90;;;;;;4949456;28;20062;-77
2023/12/28 04:20:54;;;;;;;47.17;31.77;;;16.80;99.90;;;;;;4950408;29;20421;-76
2023/12/28 04:23:19;;;;;;;51.03;35.28;;;16.40;99.90;;;;;;4951119;29;20501;-77
2023/12/28 04:25:45;;;;;;;52.28;33.67;;;16.70;99.90;;;;;;4950478;29;20039;-76
2023/12/28 04:28:11;;;;;;;52.83;31.55;;;16.40;99.90;;;;;;4950893;29;20054;-76
2023/12/28 04:30:36;;;;;;;47.67;31.70;;;17.10;99.90;;;;;;4934176;29;20047;-76
2023/12/28 04:33:02;;;;;;;53.75;30.75;;;17.50;99.90;;;;;;4950052;29;20054;-75
2023/12/28 04:35:28;;;;;;;50.40;31.13;;;17.50;99.90;;;;;;4950616;29;20460;-76
2023/12/28 04:37:54;;;;;;;46.00;31.65;;;17.60;99.90;;;;;;4949647;29;20047;-76
2023/12/28 04:40:20;;;;;;;44.47;32.25;;;17.20;99.90;;;;;;4950098;29;20106;-76
2023/12/28 04:42:46;;;;;;;59.13;33.03;;;17.10;99.90;;;;;;4950568;29;20050;-75
2023/12/28 04:45:12;;;;;;;61.70;38.38;;;16.00;99.90;;;;;;4950213;29;20073;-75
2023/12/28 04:47:37;;;;;;;57.38;38.22;;;16.90;99.90;;;;;;4949949;29;20051;-75
2023/12/28 04:50:04;;;;;;;55.28;33.25;;;17.30;99.90;;;;;;4949770;29;20065;-75
2023/12/28 04:52:30;;;;;;;55.60;33.33;;;15.90;99.90;;;;;;4950196;29;20190;-76
2023/12/28 04:54:56;;;;;;;50.55;33.97;;;16.50;99.90;;;;;;4949908;29;20158;-76
2023/12/28 04:57:24;;;;;;;52.67;37.65;;;17.10;99.90;;;;;;4950087;29;20043;-76
2023/12/28 04:59:50;;;;;;;62.08;34.42;;;17.20;99.90;;;;;;4933835;29;20039;-75
2023/12/28 05:02:15;;;;;;;54.47;33.92;;;16.80;99.90;;;;;;4949951;29;20050;-76
2023/12/28 05:04:41;;;;;;;53.90;32.83;;;16.20;99.90;;;;;;4949622;29;20552;-75
2023/12/28 05:07:07;;;;;;;54.90;33.80;;;17.20;99.90;;;;;;4933810;29;20079;-75
2023/12/28 05:09:32;;;;;;;60.60;37.85;;;17.90;99.90;;;;;;4948803;29;20093;-76
2023/12/28 05:11:58;;;;;;;72.22;41.35;;;15.80;99.90;;;;;;4949250;29;20286;-76
2023/12/28 05:14:23;;;;;;;65.85;38.78;;;16.90;99.90;;;;;;4933954;29;20079;-76
2023/12/28 05:16:49;;;;;;;63.85;38.60;;;16.10;99.90;;;;;;4948977;29;20051;-76
2023/12/28 05:19:15;;;;;;;59.38;36.72;;;17.40;99.90;;;;;;4949144;28;20055;-77
2023/12/28 05:21:40;;;;;;;61.08;38.60;;;16.10;99.90;;;;;;4949666;29;20055;-76
2023/12/28 05:24:06;;;;;;;60.25;32.83;;;16.00;99.90;;;;;;4949190;29;20047;-76
2023/12/28 05:26:32;;;;;;;57.67;37.58;;;15.90;99.90;;;;;;4926089;29;20512;-76
2023/12/28 05:28:58;;;;;;;68.65;38.55;;;16.70;99.90;;;;;;4942456;29;20076;-76
2023/12/28 05:31:23;;;;;;;64.60;36.22;;;17.30;99.90;;;;;;4927389;29;20442;-76
2023/12/28 05:33:49;;;;;;;65.20;34.47;;;16.00;99.90;;;;;;4944155;29;20051;-76
2023/12/28 05:36:15;;;;;;;58.72;36.33;;;17.20;99.90;;;;;;4947880;29;20058;-76
2023/12/28 05:38:40;;;;;;;55.08;36.00;;;17.80;99.90;;;;;;4949204;29;20150;-76
2023/12/28 05:41:06;;;;;;;51.10;32.85;;;15.90;99.90;;;;;;4948790;29;20497;-76
2023/12/28 05:43:31;;;;;;;68.95;33.45;;;15.80;99.90;;;;;;4948813;29;20039;-76
2023/12/28 05:45:57;;;;;;;58.05;35.05;;;16.30;99.90;;;;;;4948466;29;20039;-76
2023/12/28 05:48:22;;;;;;;56.22;33.33;;;17.30;99.90;;;;;;4948667;29;20051;-76
2023/12/28 05:50:49;;;;;;;57.70;37.50;;;16.10;99.90;;;;;;4948972;29;20062;-76
2023/12/28 05:53:14;;;;;;;58.17;34.92;;;17.80;99.90;;;;;;4948753;29;20106;-76
2023/12/28 05:55:43;;;;;;;62.90;37.38;;;16.80;99.90;;;;;;4947340;29;20035;-75
2023/12/28 05:58:09;;;;;;;56.13;33.75;;;17.20;99.90;;;;;;4944211;29;20047;-76
2023/12/28 06:00:42;;;;;;;58.42;36.40;;;17.30;99.90;;;;;;4942833;29;20035;-75
2023/12/28 06:03:08;;;;;;;57.35;38.88;;;17.30;99.90;;;;;;4943587;29;20118;-75
2023/12/28 06:05:34;;;;;;;63.80;35.70;;;17.50;99.90;;;;;;4938841;29;20035;-76
2023/12/28 06:07:59;;;;;;;64.68;38.88;;;16.90;99.90;;;;;;4939828;29;20607;-77
2023/12/28 06:10:25;;;;;;;69.78;42.28;;;17.50;99.90;;;;;;4946764;29;20050;-76
2023/12/28 06:12:50;;;;;;;69.18;46.40;;;17.60;99.90;;;;;;4941512;29;20113;-76
2023/12/28 06:15:16;;;;;;;74.10;46.72;;;16.40;99.90;;;;;;4947929;29;20050;-76
2023/12/28 06:17:42;;;;;;;74.05;38.88;;;16.00;99.90;;;;;;4931019;28;20059;-76
2023/12/28 06:20:08;;;;;;;69.20;35.05;;;17.00;99.90;;;;;;4947673;29;20051;-76
2023/12/28 06:22:36;;;;;;;57.13;34.78;;;15.80;99.90;;;;;;4932310;29;20074;-76
2023/12/28 06:25:03;;;;;;;61.58;36.20;;;16.50;99.90;;;;;;4944229;29;20042;-76
2023/12/28 06:27:29;;;;;;;70.95;36.15;;;15.80;99.90;;;;;;4945469;29;20047;-76
2023/12/28 06:29:54;;;;;;;57.13;33.75;;;18.10;99.90;;;;;;4945710;29;20031;-76
2023/12/28 06:32:20;;;;;;;65.07;36.80;;;17.50;99.90;;;;;;4947035;29;20126;-77
2023/12/28 06:34:46;;;;;;;66.43;38.38;;;16.00;99.90;;;;;;4948005;29;20082;-76
2023/12/28 06:37:12;;;;;;;60.88;36.05;;;16.90;99.90;;;;;;4932300;29;20042;-77
2023/12/28 06:39:38;;;;;;;57.63;38.72;;;17.80;99.90;;;;;;4946846;29;20039;-76
2023/12/28 06:42:04;;;;;;;58.25;34.80;;;17.70;99.90;;;;;;4946479;28;20161;-76
2023/12/28 06:44:29;;;;;;;75.13;38.30;;;17.80;99.90;;;;;;4947539;29;20126;-76
2023/12/28 06:46:55;;;;;;;71.63;35.17;;;16.10;99.90;;;;;;4947321;29;20050;-77
2023/12/28 06:49:20;;;;;;;59.33;34.55;;;17.50;99.90;;;;;;4946489;29;20047;-76
2023/12/28 06:51:46;;;;;;;69.15;43.05;;;16.80;99.90;;;;;;4947536;29;20595;-76
2023/12/28 06:54:13;;;;;;;60.10;35.05;;;17.10;99.90;;;;;;4944779;29;20047;-78
2023/12/28 06:56:38;;;;;;;68.25;37.63;;;17.50;99.90;;;;;;4946873;29;20082;-77
2023/12/28 06:59:04;;;;;;;57.42;34.80;;;17.30;99.90;;;;;;4946069;29;20596;-73
2023/12/28 07:01:36;;;;;;;63.63;35.20;;;16.10;99.90;;;;;;5079563;28;20483;-75
2023/12/28 07:04:01;;;;;;;77.97;41.17;;;17.50;99.90;;;;;;5077243;28;20529;-76
2023/12/28 07:06:27;;;;;;;68.07;38.78;;;17.90;99.90;;;;;;5059795;28;20041;-76
2023/12/28 07:08:53;;;;;;;74.47;37.65;;;17.50;99.90;;;;;;5060873;28;20041;-76
2023/12/28 07:11:18;;;;;;;74.78;37.67;;;17.80;99.90;;;;;;5058650;28;20044;-74
2023/12/28 07:13:44;;;;;;;70.70;37.97;;;16.90;99.90;;;;;;5053512;28;20098;-77
2023/12/28 07:16:09;;;;;;;79.18;36.92;;;17.40;99.90;;;;;;5040268;28;20232;-77
2023/12/28 07:18:35;;;;;;;80.30;41.03;;;17.70;99.90;;;;;;5042320;28;20053;-76
2023/12/28 07:21:01;;;;;;;69.28;37.65;;;16.50;99.90;;;;;;5036876;28;20048;-75
2023/12/28 07:23:27;;;;;;;75.07;39.65;;;16.80;99.90;;;;;;5050844;28;20459;-76
2023/12/28 07:25:52;;;;;;;77.88;42.85;;;16.30;99.90;;;;;;5054868;28;20099;-72
2023/12/28 07:28:18;;;;;;;82.55;40.88;;;18.00;99.90;;;;;;5057584;28;20418;-77
2023/12/28 07:30:44;;;;;;;86.53;39.10;;;16.40;99.90;;;;;;5053490;28;20376;-73
2023/12/28 07:33:10;;;;;;;87.10;44.53;;;17.30;99.90;;;;;;5047572;28;20259;-73
2023/12/28 07:35:35;;;;;;;88.32;38.72;;;16.50;99.90;;;;;;5050633;28;20514;-74
2023/12/28 07:38:01;;;;;;;90.30;41.13;;;16.20;99.90;;;;;;5047195;28;20098;-74
2023/12/28 07:40:27;;;;;;;89.25;43.72;;;18.10;99.90;;;;;;5039480;28;20041;-72
2023/12/28 07:43:02;;;;;;;82.00;40.88;;;18.10;99.90;;;;;;5050336;28;20041;-72
2023/12/28 07:45:27;;;;;;;75.82;42.10;;;18.00;99.90;;;;;;5052875;28;20048;-74
2023/12/28 07:47:53;;;;;;;83.10;41.50;;;17.60;99.90;;;;;;5032051;28;20041;-74
2023/12/28 07:50:19;;;;;;;91.07;40.17;;;17.90;99.90;;;;;;5034607;28;20045;-74
2023/12/28 07:52:46;;;;;;;77.00;37.55;;;17.70;99.90;;;;;;5054639;28;20049;-73
2023/12/28 07:55:12;;;;;;;86.43;38.50;;;16.10;99.90;;;;;;5056025;28;20049;-74
2023/12/28 07:57:38;;;;;;;84.57;41.30;;;17.60;99.90;;;;;;5052557;28;20045;-72
2023/12/28 08:00:05;;;;;;;73.13;37.53;;;17.40;99.90;;;;;;5032792;28;20404;-74
2023/12/28 08:02:31;;;;;;;71.55;37.92;;;16.00;99.90;;;;;;5051995;28;20156;-74
2023/12/28 08:04:56;;;;;;;85.70;40.58;;;16.20;99.90;;;;;;5034126;28;20819;-73
2023/12/28 08:07:22;;;;;;;88.68;41.28;;;15.90;99.90;;;;;;5048276;28;20033;-73
2023/12/28 08:09:47;;;;;;;84.85;42.28;;;18.20;99.90;;;;;;5033847;28;20861;-74
2023/12/28 08:13:01;;;;;;;89.78;40.38;;;17.70;99.90;;;;;;5026020;28;20049;-75
2023/12/28 08:15:27;;;;;;;78.95;39.95;;;18.00;99.90;;;;;;4993626;28;20057;-70
2023/12/28 08:17:52;;;;;;;75.60;38.65;;;16.40;99.90;;;;;;5029542;28;20111;-68
2023/12/28 08:20:18;;;;;;;82.28;40.05;;;18.00;99.90;;;;;;5039180;28;20288;-67
2023/12/28 08:22:44;;;;;;;86.18;39.03;;;16.50;99.90;;;;;;5019784;28;20483;-67
2023/12/28 08:25:10;;;;;;;92.18;42.65;;;17.50;99.90;;;;;;5037338;28;20040;-69
2023/12/28 08:27:36;;;;;;;79.20;47.58;;;17.90;99.90;;;;;;5041479;28;21290;-69
2023/12/28 08:30:02;;;;;;;97.32;46.17;;;16.20;99.90;;;;;;5024331;28;20342;-67
2023/12/28 08:32:27;;;;;;;91.80;41.10;;;16.10;99.90;;;;;;5034717;28;20423;-67
2023/12/28 08:34:53;;;;;;;80.50;39.95;;;17.30;99.90;;;;;;5039555;28;20514;-67
2023/12/28 08:37:18;;;;;;;102.35;40.80;;;16.00;99.90;;;;;;5034406;28;20554;-68
2023/12/28 08:39:44;;;;;;;83.82;39.25;;;16.30;99.90;;;;;;5039916;28;20079;-71
2023/12/28 08:42:10;;;;;;;82.07;38.25;;;16.70;99.90;;;;;;5022405;28;20041;-71
2023/12/28 08:44:36;;;;;;;82.28;39.67;;;17.60;99.90;;;;;;5039493;28;20049;-72
2023/12/28 08:47:02;;;;;;;77.40;40.45;;;17.80;99.90;;;;;;5036029;28;20215;-72
2023/12/28 08:49:29;;;;;;;97.88;41.80;;;17.90;99.90;;;;;;5031853;28;20491;-72
2023/12/28 08:51:54;;;;;;;82.30;40.90;;;18.00;99.90;;;;;;5029526;28;20124;-71
2023/12/28 08:54:20;;;;;;;97.75;44.30;;;18.30;99.90;;;;;;5034313;28;20498;-71
2023/12/28 08:56:46;;;;;;;92.20;39.90;;;16.40;99.90;;;;;;5038567;28;20084;-71
2023/12/28 08:59:11;;;;;;;92.88;43.15;;;16.40;99.90;;;;;;5019914;28;20037;-72
2023/12/28 09:01:37;;;;;;;93.22;42.72;;;17.60;99.90;;;;;;5018734;28;20561;-72
2023/12/28 09:04:03;;;;;;;82.10;39.78;;;17.90;99.90;;;;;;5035183;28;20068;-72
2023/12/28 09:06:28;;;;;;;84.88;40.03;;;17.60;99.90;;;;;;5035520;28;20088;-72
2023/12/28 09:08:54;;;;;;;82.25;41.42;;;17.60;99.90;;;;;;5019863;28;20052;-72
2023/12/28 09:11:21;;;;;;;95.82;43.45;;;17.00;99.90;;;;;;5037692;28;20029;-71
2023/12/28 09:13:46;;;;;;;89.63;41.67;;;16.70;99.90;;;;;;5035084;28;20041;-72
2023/12/28 09:16:14;;;;;;;84.35;36.45;;;16.60;99.90;;;;;;5017482;28;20130;-72
2023/12/28 09:18:41;;;;;;;82.53;39.92;;;16.80;99.90;;;;;;5039123;28;20442;-72
2023/12/28 09:21:08;;;;;;;89.70;41.05;;;18.10;99.90;;;;;;5034934;28;20819;-72
2023/12/28 09:23:34;;;;;;;73.68;40.10;;;17.50;99.90;;;;;;5016951;28;20406;-72
2023/12/28 09:26:03;;;;;;;85.95;41.83;;;18.20;99.90;;;;;;5034461;28;20032;-72
2023/12/28 09:28:29;;;;;;;77.82;40.88;;;16.50;99.90;;;;;;5038362;28;20123;-72
2023/12/28 09:30:54;;;;;;;93.03;42.38;;;16.80;99.90;;;;;;5034710;28;20124;-72
2023/12/28 09:33:20;;;;;;;92.65;42.70;;;17.90;99.90;;;;;;5033837;28;20047;-72
2023/12/28 09:35:55;;;;;;;84.65;39.45;;;16.70;99.90;;;;;;5038502;28;20045;-68
2023/12/28 09:38:21;;;;;;;81.20;41.60;;;16.20;99.90;;;;;;5036633;28;20044;-72
2023/12/28 09:40:51;;;;;;;86.25;41.08;;;16.10;99.90;;;;;;5035971;28;20466;-71
2023/12/28 09:43:24;;;;;;;73.22;36.80;;;17.00;99.90;;;;;;5031683;28;20056;-72
2023/12/28 09:45:51;;;;;;;82.50;41.53;;;17.10;99.90;;;;;;5035244;28;20490;-69
2023/12/28 09:48:17;;;;;;;77.38;40.35;;;16.10;99.90;;;;;;5032448;28;20037;-69
2023/12/28 09:50:54;;;;;;;101.80;46.08;;;17.60;99.90;;;;;;5041312;28;20048;-70
2023/12/28 09:53:22;;;;;;;84.22;41.00;;;16.20;99.90;;;;;;5031547;28;20045;-68
2023/12/28 09:55:49;;;;;;;84.85;42.53;;;18.00;99.90;;;;;;5032689;28;20053;-71
2023/12/28 09:58:16;;;;;;;96.78;41.55;;;17.40;99.90;;;;;;5032021;28;20124;-68
2023/12/28 10:00:45;;;;;;;72.32;38.00;;;18.20;99.90;;;;;;5037221;28;20388;-69
2023/12/28 10:03:12;;;;;;;82.78;41.65;;;18.00;99.90;;;;;;5030657;28;20073;-69
2023/12/28 10:05:40;;;;;;;87.13;40.22;;;17.80;99.90;;;;;;5022973;28;20515;-69
2023/12/28 10:08:06;;;;;;;80.43;40.97;;;17.00;99.90;;;;;;5017263;28;20033;-69
2023/12/28 10:10:31;;;;;;;89.82;45.83;;;16.20;99.90;;;;;;5035535;28;20138;-70
2023/12/28 10:12:57;;;;;;;74.40;37.70;;;16.50;99.90;;;;;;5036870;28;20540;-70
2023/12/28 10:15:25;;;;;;;68.47;37.17;;;17.70;99.90;;;;;;5019812;28;20041;-69
2023/12/28 10:17:52;;;;;;;78.75;39.78;;;17.90;99.90;;;;;;5033454;28;20055;-70
2023/12/28 10:20:17;;;;;;;70.05;40.05;;;17.70;99.90;;;;;;5034194;28;20041;-67
2023/12/28 10:22:43;;;;;;;77.03;44.30;;;16.90;99.90;;;;;;5033132;28;20033;-68
2023/12/28 10:25:09;;;;;;;86.07;43.10;;;16.50;99.90;;;;;;5035510;28;20033;-69
2023/12/28 10:27:42;;;;;;;77.30;42.40;;;17.00;99.90;;;;;;5035151;28;20091;-67
2023/12/28 10:30:09;;;;;;;82.28;41.40;;;17.80;99.90;;;;;;5035665;28;20063;-68
2023/12/28 10:32:35;;;;;;;83.00;44.92;;;17.10;99.90;;;;;;5029975;28;20511;-69
2023/12/28 10:35:01;;;;;;;74.68;41.10;;;17.30;99.90;;;;;;5034169;28;20048;-68
2023/12/28 10:37:27;;;;;;;74.13;38.40;;;17.80;99.90;;;;;;5034247;28;20048;-68
2023/12/28 10:39:55;;;;;;;89.28;45.03;;;16.20;99.90;;;;;;5036024;28;20057;-68
2023/12/28 10:42:32;;;;;;;71.68;38.50;;;16.50;99.90;;;;;;5034318;28;20060;-70
2023/12/28 10:45:10;;;;;;;80.07;41.25;;;16.90;99.90;;;;;;5037193;28;20301;-68
2023/12/28 10:47:43;;;;;;;87.22;39.95;;;17.40;99.90;;;;;;5034503;28;20042;-68
2023/12/28 10:50:11;;;;;;;74.93;41.63;;;17.30;99.90;;;;;;5032062;28;20044;-69
2023/12/28 10:52:39;;;;;;;79.13;42.63;;;17.50;99.90;;;;;;5034800;28;20410;-70
2023/12/28 10:55:29;;;;;;;77.82;42.58;;;16.10;99.90;;;;;;5035751;28;20049;-69
2023/12/28 10:58:19;;;;;;;79.45;41.20;;;16.60;99.90;;;;;;5035876;28;20036;-68
2023/12/28 11:00:52;;;;;;;81.55;42.45;;;16.80;99.90;;;;;;5031406;28;20149;-70
2023/12/28 11:03:26;;;;;;;68.70;40.33;;;18.40;99.90;;;;;;5036493;28;20132;-69
2023/12/28 11:06:24;;;;;;;86.32;42.47;;;17.70;99.90;;;;;;5034927;28;20048;-70
2023/12/28 11:08:53;;;;;;;67.53;39.35;;;17.00;99.90;;;;;;5036834;28;20118;-67
2023/12/28 11:11:21;;;;;;;70.55;36.92;;;16.80;99.90;;;;;;5036291;28;20041;-69
2023/12/28 11:13:48;;;;;;;74.10;42.67;;;16.40;99.90;;;;;;5033103;28;20081;-68
2023/12/28 11:16:15;;;;;;;88.40;37.78;;;18.00;99.90;;;;;;5019247;28;20052;-68
2023/12/28 11:18:41;;;;;;;77.80;39.92;;;18.30;99.90;;;;;;5037100;28;20056;-70
2023/12/28 11:21:07;;;;;;;71.93;41.50;;;16.40;99.90;;;;;;5017562;28;20127;-69
2023/12/28 11:23:33;;;;;;;76.40;41.13;;;17.10;99.90;;;;;;5019603;28;20926;-67
2023/12/28 11:25:58;;;;;;;92.15;47.92;;;16.30;99.90;;;;;;5035271;28;20094;-72
2023/12/28 11:28:24;;;;;;;80.35;40.15;;;16.90;99.90;;;;;;5034518;28;20115;-69
2023/12/28 11:30:51;;;;;;;85.53;41.85;;;16.90;99.90;;;;;;5034695;28;20068;-70
2023/12/28 11:33:17;;;;;;;72.53;36.05;;;18.40;99.90;;;;;;5032297;28;20087;-69
2023/12/28 11:35:43;;;;;;;66.10;36.78;;;16.90;99.90;;;;;;5032919;28;20047;-69
2023/12/28 11:38:10;;;;;;;73.72;39.38;;;17.00;99.90;;;;;;5017075;28;20475;-72
2023/12/28 11:40:46;;;;;;;83.38;39.28;;;17.50;99.90;;;;;;5035518;28;20573;-67
2023/12/28 11:43:20;;;;;;;71.18;39.97;;;16.80;99.90;;;;;;5033628;28;20090;-68
2023/12/28 11:45:54;;;;;;;82.65;38.08;;;17.90;99.90;;;;;;5034395;28;20124;-69
2023/12/28 11:48:27;;;;;;;79.45;40.58;;;17.90;99.90;;;;;;5019195;28;20126;-69
2023/12/28 11:50:56;;;;;;;78.00;39.20;;;16.80;99.90;;;;;;5038747;28;20513;-70
2023/12/28 11:53:22;;;;;;;87.53;40.55;;;16.60;99.90;;;;;;5038522;28;20045;-70
2023/12/28 11:55:47;;;;;;;69.38;37.10;;;17.20;99.90;;;;;;5040243;28;20278;-70
2023/12/28 11:58:13;;;;;;;78.60;36.65;;;17.50;99.90;;;;;;5038469;28;20079;-70
2023/12/28 12:00:40;;;;;;;76.03;37.33;;;18.10;99.90;;;;;;5037862;28;20426;-69
2023/12/28 12:03:06;;;;;;;71.55;38.33;;;17.90;99.90;;;;;;5036891;28;20065;-71
2023/12/28 12:05:31;;;;;;;76.15;40.75;;;16.40;99.90;;;;;;5018143;28;20151;-71
2023/12/28 12:07:57;;;;;;;86.65;39.53;;;17.50;99.90;;;;;;5033899;28;20609;-69
2023/12/28 12:10:23;;;;;;;83.50;41.72;;;17.70;99.90;;;;;;5019240;28;20041;-72
2023/12/28 12:12:52;;;;;;;78.80;39.53;;;17.40;99.90;;;;;;5018651;28;20413;-69
2023/12/28 12:15:18;;;;;;;89.70;37.55;;;17.40;99.90;;;;;;5035294;28;20639;-68
2023/12/28 12:17:44;;;;;;;78.97;38.42;;;18.40;99.90;;;;;;5037798;28;20048;-68
2023/12/28 12:20:10;;;;;;;85.13;41.22;;;18.20;99.90;;;;;;5037837;28;20486;-71
2023/12/28 12:22:36;;;;;;;81.03;39.35;;;17.70;99.90;;;;;;5037926;28;20136;-74
2023/12/28 12:25:05;;;;;;;80.78;39.88;;;17.50;99.90;;;;;;5037384;28;20103;-69